KSAC/SAC METAR and TAF weather

Enter ICAO airport designator
Station Type Date Time Source
KSAC METAR 2020/09/26 21:53 UTC NOAA

KSAC 262153Z 34012KT 9SM CLR 31/09 A2994 RMK AO2 SLP138 T03110089


Station Type Date Time Source
KSAC Decoded METAR 2020/09/26 21:53 UTC NOAA

SACRAMENTO EXECUTIVE AIRPORT , CA, United States (KSAC) 38-30N 121-30W 11M
Sep 26, 2020 - 05:53 PM EDT / 2020.09.26 2153 UTC
Wind: from the NNW (340 degrees) at 14 MPH (12 KT):0
Visibility: 9 mile(s):0
Sky conditions: clear
Temperature: 88.0 F (31.1 C)
Dew Point: 48.0 F (8.9 C)
Relative Humidity: 25%
Pressure (altimeter): 29.94 in. Hg (1013 hPa)
ob: KSAC 262153Z 34012KT 9SM CLR 31/09 A2994 RMK AO2 SLP138 T03110089
cycle: 22

Station Type Date Time Source
KSAC TAF 2020/09/26 18:51 UTC NOAA

TAF KSAC 261748Z 2618/2718 32008KT P6SM SKC
FM270500 33012G17KT P6SM SKC

Example: see airport list